sensor_id;sensor_type;location;lat;lon;timestamp;P1;durP1;ratioP1;P2;durP2;ratioP2
5026;SDS011;2532;52.480;13.354;2023-09-18T04:02:40;12.10;;;10.23;;
5026;SDS011;2532;52.480;13.354;2023-09-18T04:05:07;10.47;;;9.30;;
5026;SDS011;2532;52.480;13.354;2023-09-18T04:07:34;10.73;;;9.73;;
5026;SDS011;2532;52.480;13.354;2023-09-18T04:10:02;11.77;;;9.83;;
5026;SDS011;2532;52.480;13.354;2023-09-18T04:12:30;13.00;;;10.63;;
5026;SDS011;2532;52.480;13.354;2023-09-18T04:14:57;12.97;;;10.47;;
5026;SDS011;2532;52.480;13.354;2023-09-18T04:17:24;20.43;;;11.43;;
5026;SDS011;2532;52.480;13.354;2023-09-18T04:19:53;12.07;;;10.77;;
5026;SDS011;2532;52.480;13.354;2023-09-18T04:22:20;12.10;;;10.63;;
5026;SDS011;2532;52.480;13.354;2023-09-18T04:24:47;18.40;;;13.33;;
5026;SDS011;2532;52.480;13.354;2023-09-18T04:27:14;18.70;;;11.93;;
5026;SDS011;2532;52.480;13.354;2023-09-18T04:29:40;14.40;;;11.73;;
5026;SDS011;2532;52.480;13.354;2023-09-18T04:32:07;12.27;;;10.17;;
5026;SDS011;2532;52.480;13.354;2023-09-18T04:34:35;12.40;;;11.10;;
5026;SDS011;2532;52.480;13.354;2023-09-18T04:37:04;14.13;;;10.60;;
5026;SDS011;2532;52.480;13.354;2023-09-18T04:39:31;15.77;;;11.80;;
5026;SDS011;2532;52.480;13.354;2023-09-18T04:42:00;12.80;;;10.17;;
5026;SDS011;2532;52.480;13.354;2023-09-18T04:44:30;14.03;;;10.30;;
5026;SDS011;2532;52.480;13.354;2023-09-18T04:46:57;11.63;;;9.63;;
5026;SDS011;2532;52.480;13.354;2023-09-18T04:49:24;11.67;;;10.27;;
5026;SDS011;2532;52.480;13.354;2023-09-18T04:51:54;23.23;;;15.17;;
5026;SDS011;2532;52.480;13.354;2023-09-18T04:54:22;12.57;;;11.27;;
5026;SDS011;2532;52.480;13.354;2023-09-18T04:56:49;17.33;;;11.70;;
5026;SDS011;2532;52.480;13.354;2023-09-18T04:59:16;15.70;;;11.10;;
5026;SDS011;2532;52.480;13.354;2023-09-18T05:01:43;13.03;;;11.63;;
5026;SDS011;2532;52.480;13.354;2023-09-18T05:04:10;16.13;;;10.80;;
5026;SDS011;2532;52.480;13.354;2023-09-18T05:06:37;15.37;;;10.40;;
5026;SDS011;2532;52.480;13.354;2023-09-18T05:09:05;13.43;;;11.60;;
5026;SDS011;2532;52.480;13.354;2023-09-18T05:11:33;13.17;;;11.40;;
5026;SDS011;2532;52.480;13.354;2023-09-18T05:14:02;13.20;;;10.47;;
5026;SDS011;2532;52.480;13.354;2023-09-18T05:16:28;14.97;;;10.43;;
5026;SDS011;2532;52.480;13.354;2023-09-18T05:18:55;13.60;;;11.20;;
5026;SDS011;2532;52.480;13.354;2023-09-18T05:21:22;12.97;;;10.47;;
5026;SDS011;2532;52.480;13.354;2023-09-18T05:23:51;17.17;;;10.50;;
5026;SDS011;2532;52.480;13.354;2023-09-18T05:26:19;14.40;;;10.23;;
5026;SDS011;2532;52.480;13.354;2023-09-18T05:28:50;12.73;;;10.13;;
5026;SDS011;2532;52.480;13.354;2023-09-18T05:31:19;12.37;;;10.30;;
5026;SDS011;2532;52.480;13.354;2023-09-18T05:33:45;15.07;;;11.03;;
5026;SDS011;2532;52.480;13.354;2023-09-18T05:36:13;12.33;;;10.30;;
5026;SDS011;2532;52.480;13.354;2023-09-18T05:38:40;13.67;;;10.07;;
5026;SDS011;2532;52.480;13.354;2023-09-18T05:41:07;12.27;;;10.40;;
5026;SDS011;2532;52.480;13.354;2023-09-18T05:43:34;14.20;;;11.33;;
5026;SDS011;2532;52.480;13.354;2023-09-18T05:46:03;13.77;;;10.00;;
5026;SDS011;2532;52.480;13.354;2023-09-18T05:48:30;13.20;;;11.40;;
5026;SDS011;2532;52.480;13.354;2023-09-18T05:50:57;15.37;;;11.83;;
5026;SDS011;2532;52.480;13.354;2023-09-18T05:53:24;16.47;;;11.20;;
5026;SDS011;2532;52.480;13.354;2023-09-18T05:55:51;13.80;;;11.50;;
5026;SDS011;2532;52.480;13.354;2023-09-18T05:58:18;15.07;;;10.33;;
5026;SDS011;2532;52.480;13.354;2023-09-18T06:00:49;13.07;;;10.90;;
5026;SDS011;2532;52.480;13.354;2023-09-18T06:03:17;12.37;;;11.03;;
5026;SDS011;2532;52.480;13.354;2023-09-18T06:05:45;14.07;;;10.70;;
5026;SDS011;2532;52.480;13.354;2023-09-18T06:08:13;12.50;;;10.17;;
5026;SDS011;2532;52.480;13.354;2023-09-18T06:10:40;13.77;;;11.47;;
5026;SDS011;2532;52.480;13.354;2023-09-18T06:13:07;12.70;;;10.33;;
5026;SDS011;2532;52.480;13.354;2023-09-18T06:15:34;12.80;;;10.20;;
5026;SDS011;2532;52.480;13.354;2023-09-18T06:18:01;16.13;;;10.43;;
5026;SDS011;2532;52.480;13.354;2023-09-18T06:20:30;13.20;;;11.80;;
5026;SDS011;2532;52.480;13.354;2023-09-18T06:22:57;16.43;;;11.67;;
5026;SDS011;2532;52.480;13.354;2023-09-18T06:25:24;25.00;;;11.40;;
5026;SDS011;2532;52.480;13.354;2023-09-18T06:27:51;15.40;;;12.47;;
5026;SDS011;2532;52.480;13.354;2023-09-18T06:30:18;15.30;;;11.73;;
5026;SDS011;2532;52.480;13.354;2023-09-18T06:32:45;19.60;;;11.43;;
5026;SDS011;2532;52.480;13.354;2023-09-18T06:35:12;13.03;;;10.53;;
5026;SDS011;2532;52.480;13.354;2023-09-18T06:37:40;20.63;;;11.57;;
5026;SDS011;2532;52.480;13.354;2023-09-18T06:40:07;19.93;;;11.20;;
5026;SDS011;2532;52.480;13.354;2023-09-18T06:42:35;17.20;;;11.37;;
5026;SDS011;2532;52.480;13.354;2023-09-18T06:45:03;17.67;;;11.47;;
5026;SDS011;2532;52.480;13.354;2023-09-18T06:47:31;25.60;;;11.83;;
5026;SDS011;2532;52.480;13.354;2023-09-18T06:49:59;13.37;;;11.20;;
5026;SDS011;2532;52.480;13.354;2023-09-18T06:52:26;19.33;;;15.27;;
5026;SDS011;2532;52.480;13.354;2023-09-18T06:54:54;16.07;;;10.63;;
5026;SDS011;2532;52.480;13.354;2023-09-18T06:57:22;14.40;;;11.40;;
5026;SDS011;2532;52.480;13.354;2023-09-18T06:59:50;13.33;;;10.47;;
5026;SDS011;2532;52.480;13.354;2023-09-18T07:02:17;11.57;;;9.60;;
5026;SDS011;2532;52.480;13.354;2023-09-18T07:04:44;13.60;;;9.07;;
5026;SDS011;2532;52.480;13.354;2023-09-18T07:07:11;14.23;;;9.57;;
5026;SDS011;2532;52.480;13.354;2023-09-18T07:09:39;10.43;;;8.77;;
5026;SDS011;2532;52.480;13.354;2023-09-18T07:12:08;22.30;;;10.57;;
5026;SDS011;2532;52.480;13.354;2023-09-18T07:14:35;21.70;;;11.33;;
5026;SDS011;2532;52.480;13.354;2023-09-18T07:17:03;12.70;;;9.40;;
5026;SDS011;2532;52.480;13.354;2023-09-18T07:19:30;10.50;;;8.47;;
5026;SDS011;2532;52.480;13.354;2023-09-18T07:21:57;16.77;;;9.23;;
5026;SDS011;2532;52.480;13.354;2023-09-18T07:24:24;15.83;;;8.90;;
5026;SDS011;2532;52.480;13.354;2023-09-18T07:26:51;10.80;;;9.20;;
5026;SDS011;2532;52.480;13.354;2023-09-18T07:29:19;10.87;;;8.60;;
5026;SDS011;2532;52.480;13.354;2023-09-18T07:31:47;11.97;;;9.40;;
5026;SDS011;2532;52.480;13.354;2023-09-18T07:34:14;15.73;;;10.33;;
5026;SDS011;2532;52.480;13.354;2023-09-18T07:36:43;11.83;;;9.80;;
5026;SDS011;2532;52.480;13.354;2023-09-18T07:39:10;15.97;;;9.50;;
5026;SDS011;2532;52.480;13.354;2023-09-18T07:41:37;12.17;;;8.73;;
5026;SDS011;2532;52.480;13.354;2023-09-18T07:44:04;13.60;;;9.47;;
5026;SDS011;2532;52.480;13.354;2023-09-18T07:46:33;13.67;;;9.33;;
5026;SDS011;2532;52.480;13.354;2023-09-18T07:49:00;11.57;;;8.53;;
5026;SDS011;2532;52.480;13.354;2023-09-18T07:51:27;10.73;;;8.70;;
5026;SDS011;2532;52.480;13.354;2023-09-18T07:53:55;12.97;;;8.80;;
5026;SDS011;2532;52.480;13.354;2023-09-18T07:56:22;13.67;;;9.33;;
5026;SDS011;2532;52.480;13.354;2023-09-18T07:58:49;16.97;;;8.50;;
5026;SDS011;2532;52.480;13.354;2023-09-18T08:01:16;14.67;;;8.70;;
5026;SDS011;2532;52.480;13.354;2023-09-18T08:03:44;12.77;;;8.90;;
5026;SDS011;2532;52.480;13.354;2023-09-18T08:06:11;9.73;;;8.73;;
5026;SDS011;2532;52.480;13.354;2023-09-18T08:08:41;18.63;;;9.10;;
5026;SDS011;2532;52.480;13.354;2023-09-18T08:11:07;12.93;;;7.67;;
5026;SDS011;2532;52.480;13.354;2023-09-18T08:13:35;14.00;;;8.97;;
5026;SDS011;2532;52.480;13.354;2023-09-18T08:16:02;11.23;;;9.07;;
5026;SDS011;2532;52.480;13.354;2023-09-18T08:18:31;11.43;;;8.67;;
5026;SDS011;2532;52.480;13.354;2023-09-18T08:21:01;11.87;;;8.33;;
5026;SDS011;2532;52.480;13.354;2023-09-18T08:23:29;8.10;;;7.30;;
5026;SDS011;2532;52.480;13.354;2023-09-18T08:25:57;9.73;;;6.93;;
5026;SDS011;2532;52.480;13.354;2023-09-18T08:28:24;14.43;;;8.50;;
5026;SDS011;2532;52.480;13.354;2023-09-18T08:30:51;21.40;;;9.60;;
5026;SDS011;2532;52.480;13.354;2023-09-18T08:33:19;12.40;;;7.57;;
5026;SDS011;2532;52.480;13.354;2023-09-18T08:35:47;10.97;;;8.03;;
5026;SDS011;2532;52.480;13.354;2023-09-18T08:38:16;9.23;;;7.40;;
5026;SDS011;2532;52.480;13.354;2023-09-18T08:40:43;10.77;;;7.80;;
5026;SDS011;2532;52.480;13.354;2023-09-18T08:43:10;11.67;;;7.80;;
5026;SDS011;2532;52.480;13.354;2023-09-18T08:45:41;21.03;;;7.27;;
5026;SDS011;2532;52.480;13.354;2023-09-18T08:48:12;9.40;;;7.00;;
5026;SDS011;2532;52.480;13.354;2023-09-18T08:50:39;9.87;;;8.07;;
5026;SDS011;2532;52.480;13.354;2023-09-18T08:53:07;10.03;;;7.20;;
5026;SDS011;2532;52.480;13.354;2023-09-18T08:55:36;8.60;;;7.80;;
5026;SDS011;2532;52.480;13.354;2023-09-18T08:58:03;9.60;;;7.20;;
5026;SDS011;2532;52.480;13.354;2023-09-18T09:00:32;8.53;;;7.07;;
5026;SDS011;2532;52.480;13.354;2023-09-18T09:03:00;11.37;;;7.17;;
5026;SDS011;2532;52.480;13.354;2023-09-18T09:05:27;9.20;;;7.73;;
5026;SDS011;2532;52.480;13.354;2023-09-18T09:07:54;7.87;;;7.07;;
5026;SDS011;2532;52.480;13.354;2023-09-18T09:10:21;10.97;;;6.67;;
5026;SDS011;2532;52.480;13.354;2023-09-18T09:12:55;12.83;;;7.57;;
5026;SDS011;2532;52.480;13.354;2023-09-18T09:15:25;8.40;;;7.40;;
5026;SDS011;2532;52.480;13.354;2023-09-18T09:18:02;11.30;;;7.00;;
5026;SDS011;2532;52.480;13.354;2023-09-18T09:20:30;20.23;;;7.20;;
5026;SDS011;2532;52.480;13.354;2023-09-18T09:23:01;7.23;;;6.13;;
5026;SDS011;2532;52.480;13.354;2023-09-18T09:25:29;7.73;;;6.93;;
5026;SDS011;2532;52.480;13.354;2023-09-18T09:27:59;7.50;;;6.20;;
5026;SDS011;2532;52.480;13.354;2023-09-18T09:30:29;9.37;;;6.60;;
5026;SDS011;2532;52.480;13.354;2023-09-18T09:32:56;7.53;;;6.00;;
5026;SDS011;2532;52.480;13.354;2023-09-18T09:35:27;8.67;;;6.57;;
5026;SDS011;2532;52.480;13.354;2023-09-18T09:37:59;10.27;;;6.93;;
5026;SDS011;2532;52.480;13.354;2023-09-18T09:40:27;7.27;;;6.47;;
5026;SDS011;2532;52.480;13.354;2023-09-18T09:42:56;7.63;;;5.97;;
5026;SDS011;2532;52.480;13.354;2023-09-18T09:45:28;6.77;;;6.07;;
5026;SDS011;2532;52.480;13.354;2023-09-18T09:48:00;6.90;;;6.20;;
5026;SDS011;2532;52.480;13.354;2023-09-18T09:50:27;9.70;;;6.43;;
5026;SDS011;2532;52.480;13.354;2023-09-18T09:52:55;8.40;;;6.00;;
5026;SDS011;2532;52.480;13.354;2023-09-18T09:55:22;8.80;;;6.20;;
5026;SDS011;2532;52.480;13.354;2023-09-18T09:57:51;9.00;;;6.20;;
5026;SDS011;2532;52.480;13.354;2023-09-18T10:00:22;13.90;;;6.47;;
5026;SDS011;2532;52.480;13.354;2023-09-18T10:03:00;7.13;;;5.93;;
5026;SDS011;2532;52.480;13.354;2023-09-18T10:05:30;6.27;;;5.63;;
5026;SDS011;2532;52.480;13.354;2023-09-18T10:08:00;14.00;;;6.70;;
5026;SDS011;2532;52.480;13.354;2023-09-18T10:10:32;17.37;;;6.10;;
5026;SDS011;2532;52.480;13.354;2023-09-18T10:13:04;6.67;;;5.57;;
5026;SDS011;2532;52.480;13.354;2023-09-18T10:15:37;10.10;;;6.30;;
5026;SDS011;2532;52.480;13.354;2023-09-18T10:18:10;8.70;;;5.70;;
5026;SDS011;2532;52.480;13.354;2023-09-18T10:20:46;8.07;;;6.37;;
5026;SDS011;2532;52.480;13.354;2023-09-18T10:23:20;13.83;;;6.00;;
5026;SDS011;2532;52.480;13.354;2023-09-18T10:25:54;7.13;;;6.20;;
5026;SDS011;2532;52.480;13.354;2023-09-18T10:28:24;6.13;;;5.40;;
5026;SDS011;2532;52.480;13.354;2023-09-18T10:30:53;9.10;;;6.57;;
5026;SDS011;2532;52.480;13.354;2023-09-18T10:33:25;7.07;;;6.10;;
5026;SDS011;2532;52.480;13.354;2023-09-18T10:35:53;12.63;;;5.67;;
5026;SDS011;2532;52.480;13.354;2023-09-18T10:38:22;6.70;;;6.10;;
5026;SDS011;2532;52.480;13.354;2023-09-18T10:40:51;8.53;;;6.10;;
5026;SDS011;2532;52.480;13.354;2023-09-18T10:43:20;6.13;;;5.63;;
5026;SDS011;2532;52.480;13.354;2023-09-18T10:45:50;9.07;;;6.80;;
5026;SDS011;2532;52.480;13.354;2023-09-18T10:48:18;9.03;;;6.47;;
5026;SDS011;2532;52.480;13.354;2023-09-18T10:50:49;9.67;;;7.10;;
5026;SDS011;2532;52.480;13.354;2023-09-18T10:53:18;6.67;;;5.83;;
5026;SDS011;2532;52.480;13.354;2023-09-18T10:55:47;7.10;;;6.00;;
5026;SDS011;2532;52.480;13.354;2023-09-18T10:58:22;10.00;;;5.80;;
5026;SDS011;2532;52.480;13.354;2023-09-18T11:00:50;6.00;;;5.30;;
5026;SDS011;2532;52.480;13.354;2023-09-18T11:03:18;8.33;;;6.50;;
5026;SDS011;2532;52.480;13.354;2023-09-18T11:06:01;9.67;;;6.23;;
5026;SDS011;2532;52.480;13.354;2023-09-18T11:08:33;8.73;;;7.03;;
5026;SDS011;2532;52.480;13.354;2023-09-18T11:11:01;9.37;;;6.40;;
5026;SDS011;2532;52.480;13.354;2023-09-18T11:13:35;7.80;;;6.03;;
5026;SDS011;2532;52.480;13.354;2023-09-18T11:16:18;7.80;;;6.50;;
5026;SDS011;2532;52.480;13.354;2023-09-18T11:19:10;7.77;;;5.60;;
5026;SDS011;2532;52.480;13.354;2023-09-18T11:21:40;10.53;;;5.90;;
5026;SDS011;2532;52.480;13.354;2023-09-18T11:24:11;9.63;;;6.00;;
5026;SDS011;2532;52.480;13.354;2023-09-18T11:26:43;8.13;;;6.50;;
5026;SDS011;2532;52.480;13.354;2023-09-18T11:29:14;9.67;;;6.70;;
5026;SDS011;2532;52.480;13.354;2023-09-18T11:31:45;8.43;;;6.40;;
5026;SDS011;2532;52.480;13.354;2023-09-18T11:34:14;8.67;;;6.30;;
5026;SDS011;2532;52.480;13.354;2023-09-18T11:36:43;9.10;;;6.57;;
5026;SDS011;2532;52.480;13.354;2023-09-18T11:39:11;9.40;;;6.00;;
5026;SDS011;2532;52.480;13.354;2023-09-18T11:41:39;7.17;;;5.77;;
5026;SDS011;2532;52.480;13.354;2023-09-18T11:47:00;7.23;;;5.87;;
5026;SDS011;2532;52.480;13.354;2023-09-18T11:49:29;9.73;;;5.70;;
5026;SDS011;2532;52.480;13.354;2023-09-18T11:51:59;12.13;;;5.83;;
5026;SDS011;2532;52.480;13.354;2023-09-18T11:54:27;9.40;;;6.80;;
5026;SDS011;2532;52.480;13.354;2023-09-18T11:56:55;9.93;;;6.73;;
5026;SDS011;2532;52.480;13.354;2023-09-18T11:59:37;11.03;;;6.60;;
5026;SDS011;2532;52.480;13.354;2023-09-18T12:02:06;10.30;;;6.87;;
5026;SDS011;2532;52.480;13.354;2023-09-18T12:04:33;8.27;;;6.53;;
5026;SDS011;2532;52.480;13.354;2023-09-18T12:07:02;10.00;;;6.33;;
5026;SDS011;2532;52.480;13.354;2023-09-18T12:09:30;9.97;;;7.07;;
5026;SDS011;2532;52.480;13.354;2023-09-18T12:11:57;6.83;;;6.00;;
5026;SDS011;2532;52.480;13.354;2023-09-18T12:14:30;8.47;;;6.70;;
5026;SDS011;2532;52.480;13.354;2023-09-18T12:16:58;11.23;;;6.60;;
5026;SDS011;2532;52.480;13.354;2023-09-18T12:19:26;8.80;;;6.30;;
5026;SDS011;2532;52.480;13.354;2023-09-18T12:21:53;8.97;;;5.90;;
5026;SDS011;2532;52.480;13.354;2023-09-18T12:24:22;10.23;;;6.30;;
5026;SDS011;2532;52.480;13.354;2023-09-18T12:26:50;21.37;;;6.93;;
5026;SDS011;2532;52.480;13.354;2023-09-18T12:29:18;7.77;;;5.63;;
5026;SDS011;2532;52.480;13.354;2023-09-18T12:31:45;8.93;;;6.30;;
5026;SDS011;2532;52.480;13.354;2023-09-18T12:34:16;13.67;;;6.30;;
5026;SDS011;2532;52.480;13.354;2023-09-18T12:36:46;8.20;;;6.17;;
5026;SDS011;2532;52.480;13.354;2023-09-18T12:39:14;10.40;;;6.03;;
5026;SDS011;2532;52.480;13.354;2023-09-18T12:41:43;8.60;;;5.27;;
5026;SDS011;2532;52.480;13.354;2023-09-18T12:44:10;10.20;;;6.20;;
5026;SDS011;2532;52.480;13.354;2023-09-18T12:46:39;14.10;;;5.57;;
5026;SDS011;2532;52.480;13.354;2023-09-18T12:49:19;11.10;;;6.50;;
5026;SDS011;2532;52.480;13.354;2023-09-18T12:51:55;10.80;;;7.40;;
5026;SDS011;2532;52.480;13.354;2023-09-18T12:54:36;8.13;;;6.10;;
5026;SDS011;2532;52.480;13.354;2023-09-18T12:57:09;10.63;;;6.60;;
5026;SDS011;2532;52.480;13.354;2023-09-18T12:59:36;14.40;;;6.70;;
5026;SDS011;2532;52.480;13.354;2023-09-18T13:02:04;17.07;;;6.10;;
5026;SDS011;2532;52.480;13.354;2023-09-18T13:04:32;17.33;;;6.63;;
5026;SDS011;2532;52.480;13.354;2023-09-18T13:07:09;10.13;;;6.70;;
5026;SDS011;2532;52.480;13.354;2023-09-18T13:09:37;8.27;;;6.33;;
5026;SDS011;2532;52.480;13.354;2023-09-18T13:12:04;9.60;;;6.50;;
5026;SDS011;2532;52.480;13.354;2023-09-18T13:17:36;8.50;;;6.70;;
5026;SDS011;2532;52.480;13.354;2023-09-18T13:20:09;24.87;;;7.23;;
5026;SDS011;2532;52.480;13.354;2023-09-18T13:22:40;13.70;;;7.20;;
5026;SDS011;2532;52.480;13.354;2023-09-18T13:25:08;9.17;;;6.80;;
5026;SDS011;2532;52.480;13.354;2023-09-18T13:27:36;15.67;;;7.30;;
5026;SDS011;2532;52.480;13.354;2023-09-18T13:30:06;13.07;;;7.53;;
5026;SDS011;2532;52.480;13.354;2023-09-18T13:32:35;15.70;;;7.37;;
5026;SDS011;2532;52.480;13.354;2023-09-18T13:35:02;15.13;;;7.37;;
5026;SDS011;2532;52.480;13.354;2023-09-18T13:37:31;16.30;;;7.60;;
5026;SDS011;2532;52.480;13.354;2023-09-18T13:39:58;12.23;;;6.83;;
5026;SDS011;2532;52.480;13.354;2023-09-18T13:42:27;18.80;;;7.77;;
5026;SDS011;2532;52.480;13.354;2023-09-18T13:44:56;11.00;;;7.10;;
5026;SDS011;2532;52.480;13.354;2023-09-18T13:47:27;10.43;;;6.60;;
5026;SDS011;2532;52.480;13.354;2023-09-18T13:49:54;11.70;;;7.33;;
5026;SDS011;2532;52.480;13.354;2023-09-18T13:52:24;10.93;;;7.73;;
5026;SDS011;2532;52.480;13.354;2023-09-18T13:54:51;14.00;;;7.00;;
5026;SDS011;2532;52.480;13.354;2023-09-18T13:57:18;11.27;;;6.73;;
5026;SDS011;2532;52.480;13.354;2023-09-18T13:59:46;11.80;;;7.27;;
5026;SDS011;2532;52.480;13.354;2023-09-18T14:02:14;11.93;;;7.17;;
5026;SDS011;2532;52.480;13.354;2023-09-18T14:04:43;8.97;;;6.40;;
5026;SDS011;2532;52.480;13.354;2023-09-18T14:07:11;12.73;;;6.10;;
5026;SDS011;2532;52.480;13.354;2023-09-18T14:09:38;8.37;;;6.47;;
5026;SDS011;2532;52.480;13.354;2023-09-18T14:12:06;6.90;;;5.90;;
5026;SDS011;2532;52.480;13.354;2023-09-18T14:14:33;10.60;;;6.23;;
5026;SDS011;2532;52.480;13.354;2023-09-18T14:17:01;12.10;;;6.30;;
5026;SDS011;2532;52.480;13.354;2023-09-18T14:19:28;11.37;;;7.17;;
5026;SDS011;2532;52.480;13.354;2023-09-18T14:21:57;11.43;;;5.40;;
5026;SDS011;2532;52.480;13.354;2023-09-18T14:24:28;10.87;;;6.63;;
5026;SDS011;2532;52.480;13.354;2023-09-18T14:26:55;23.00;;;8.10;;
5026;SDS011;2532;52.480;13.354;2023-09-18T14:29:22;17.90;;;7.07;;
5026;SDS011;2532;52.480;13.354;2023-09-18T14:31:49;15.23;;;7.13;;
5026;SDS011;2532;52.480;13.354;2023-09-18T14:34:16;11.97;;;6.77;;
5026;SDS011;2532;52.480;13.354;2023-09-18T14:36:43;12.13;;;6.43;;
5026;SDS011;2532;52.480;13.354;2023-09-18T14:39:11;9.17;;;5.73;;
5026;SDS011;2532;52.480;13.354;2023-09-18T14:41:38;8.33;;;5.27;;
5026;SDS011;2532;52.480;13.354;2023-09-18T14:44:06;9.20;;;5.23;;
5026;SDS011;2532;52.480;13.354;2023-09-18T14:46:35;8.17;;;5.30;;
5026;SDS011;2532;52.480;13.354;2023-09-18T14:49:03;6.63;;;5.20;;
5026;SDS011;2532;52.480;13.354;2023-09-18T14:51:30;9.90;;;5.90;;
5026;SDS011;2532;52.480;13.354;2023-09-18T14:53:58;11.17;;;5.27;;
5026;SDS011;2532;52.480;13.354;2023-09-18T14:56:27;10.57;;;4.80;;
5026;SDS011;2532;52.480;13.354;2023-09-18T14:58:54;10.43;;;5.23;;
5026;SDS011;2532;52.480;13.354;2023-09-18T15:01:21;8.43;;;5.33;;
5026;SDS011;2532;52.480;13.354;2023-09-18T15:03:48;9.20;;;4.80;;
5026;SDS011;2532;52.480;13.354;2023-09-18T15:06:15;8.23;;;4.93;;
5026;SDS011;2532;52.480;13.354;2023-09-18T15:08:43;9.33;;;5.10;;
5026;SDS011;2532;52.480;13.354;2023-09-18T15:11:10;10.63;;;4.43;;
5026;SDS011;2532;52.480;13.354;2023-09-18T15:13:39;7.83;;;4.53;;
5026;SDS011;2532;52.480;13.354;2023-09-18T15:16:06;8.77;;;4.97;;
5026;SDS011;2532;52.480;13.354;2023-09-18T15:18:33;8.33;;;4.20;;
5026;SDS011;2532;52.480;13.354;2023-09-18T15:21:01;9.57;;;5.07;;
5026;SDS011;2532;52.480;13.354;2023-09-18T15:23:29;13.93;;;5.33;;
5026;SDS011;2532;52.480;13.354;2023-09-18T15:25:55;11.27;;;5.67;;
5026;SDS011;2532;52.480;13.354;2023-09-18T15:28:23;8.13;;;5.07;;
5026;SDS011;2532;52.480;13.354;2023-09-18T15:30:53;10.97;;;4.93;;
5026;SDS011;2532;52.480;13.354;2023-09-18T15:33:21;13.13;;;6.13;;
5026;SDS011;2532;52.480;13.354;2023-09-18T15:35:50;7.83;;;4.63;;
5026;SDS011;2532;52.480;13.354;2023-09-18T15:38:18;8.63;;;4.33;;
5026;SDS011;2532;52.480;13.354;2023-09-18T15:40:45;12.40;;;4.30;;
5026;SDS011;2532;52.480;13.354;2023-09-18T15:43:12;9.33;;;4.60;;
5026;SDS011;2532;52.480;13.354;2023-09-18T15:45:39;18.57;;;5.70;;
5026;SDS011;2532;52.480;13.354;2023-09-18T15:48:09;10.53;;;4.67;;
5026;SDS011;2532;52.480;13.354;2023-09-18T15:50:35;8.90;;;5.10;;
5026;SDS011;2532;52.480;13.354;2023-09-18T15:53:02;11.10;;;4.77;;
5026;SDS011;2532;52.480;13.354;2023-09-18T15:55:30;7.33;;;5.20;;
5026;SDS011;2532;52.480;13.354;2023-09-18T15:57:57;9.00;;;4.77;;
5026;SDS011;2532;52.480;13.354;2023-09-18T16:00:23;11.93;;;4.90;;
5026;SDS011;2532;52.480;13.354;2023-09-18T16:02:50;6.20;;;4.80;;
5026;SDS011;2532;52.480;13.354;2023-09-18T16:05:19;8.77;;;4.37;;
5026;SDS011;2532;52.480;13.354;2023-09-18T16:07:50;7.10;;;4.50;;
5026;SDS011;2532;52.480;13.354;2023-09-18T16:10:21;9.20;;;5.20;;
5026;SDS011;2532;52.480;13.354;2023-09-18T16:12:48;10.77;;;5.40;;
5026;SDS011;2532;52.480;13.354;2023-09-18T16:15:15;13.33;;;8.30;;
5026;SDS011;2532;52.480;13.354;2023-09-18T16:17:43;11.07;;;5.90;;
5026;SDS011;2532;52.480;13.354;2023-09-18T16:20:11;13.57;;;6.00;;
5026;SDS011;2532;52.480;13.354;2023-09-18T16:22:40;9.07;;;5.93;;
5026;SDS011;2532;52.480;13.354;2023-09-18T16:25:11;13.63;;;6.53;;
5026;SDS011;2532;52.480;13.354;2023-09-18T16:27:38;9.90;;;5.60;;
5026;SDS011;2532;52.480;13.354;2023-09-18T16:30:08;11.70;;;6.30;;
5026;SDS011;2532;52.480;13.354;2023-09-18T16:32:36;14.50;;;6.67;;
5026;SDS011;2532;52.480;13.354;2023-09-18T16:35:04;14.77;;;6.63;;
5026;SDS011;2532;52.480;13.354;2023-09-18T16:37:31;10.50;;;5.57;;
5026;SDS011;2532;52.480;13.354;2023-09-18T16:40:00;14.10;;;5.70;;
5026;SDS011;2532;52.480;13.354;2023-09-18T16:42:28;14.33;;;8.63;;
5026;SDS011;2532;52.480;13.354;2023-09-18T16:44:54;13.73;;;6.13;;
5026;SDS011;2532;52.480;13.354;2023-09-18T16:47:24;12.77;;;5.93;;
5026;SDS011;2532;52.480;13.354;2023-09-18T16:49:51;10.63;;;6.10;;
5026;SDS011;2532;52.480;13.354;2023-09-18T16:52:19;15.03;;;7.10;;
5026;SDS011;2532;52.480;13.354;2023-09-18T16:54:47;13.50;;;6.03;;
5026;SDS011;2532;52.480;13.354;2023-09-18T16:57:15;14.80;;;6.43;;
5026;SDS011;2532;52.480;13.354;2023-09-18T16:59:42;10.47;;;6.50;;
5026;SDS011;2532;52.480;13.354;2023-09-18T17:02:10;7.50;;;5.80;;
5026;SDS011;2532;52.480;13.354;2023-09-18T17:04:38;11.67;;;5.90;;
5026;SDS011;2532;52.480;13.354;2023-09-18T17:07:06;12.70;;;6.30;;
5026;SDS011;2532;52.480;13.354;2023-09-18T17:09:34;12.27;;;6.90;;
5026;SDS011;2532;52.480;13.354;2023-09-18T17:12:01;10.67;;;6.40;;
5026;SDS011;2532;52.480;13.354;2023-09-18T17:14:30;9.20;;;6.80;;
5026;SDS011;2532;52.480;13.354;2023-09-18T17:16:57;8.47;;;6.60;;
5026;SDS011;2532;52.480;13.354;2023-09-18T17:19:24;10.37;;;6.60;;
5026;SDS011;2532;52.480;13.354;2023-09-18T17:21:51;12.53;;;6.30;;
5026;SDS011;2532;52.480;13.354;2023-09-18T17:24:18;9.70;;;6.57;;
5026;SDS011;2532;52.480;13.354;2023-09-18T17:26:44;10.30;;;7.10;;
5026;SDS011;2532;52.480;13.354;2023-09-18T17:29:12;9.90;;;6.90;;
5026;SDS011;2532;52.480;13.354;2023-09-18T17:31:40;13.17;;;7.00;;
5026;SDS011;2532;52.480;13.354;2023-09-18T17:34:08;13.50;;;6.50;;
5026;SDS011;2532;52.480;13.354;2023-09-18T17:36:36;8.10;;;5.90;;
5026;SDS011;2532;52.480;13.354;2023-09-18T17:39:03;12.57;;;6.70;;
5026;SDS011;2532;52.480;13.354;2023-09-18T17:41:32;8.97;;;5.83;;
5026;SDS011;2532;52.480;13.354;2023-09-18T17:43:59;11.93;;;6.30;;
5026;SDS011;2532;52.480;13.354;2023-09-18T17:46:27;8.87;;;6.23;;
5026;SDS011;2532;52.480;13.354;2023-09-18T17:48:56;12.33;;;6.20;;
5026;SDS011;2532;52.480;13.354;2023-09-18T17:51:22;22.90;;;9.03;;
5026;SDS011;2532;52.480;13.354;2023-09-18T17:53:49;26.77;;;10.67;;
5026;SDS011;2532;52.480;13.354;2023-09-18T17:56:17;15.70;;;7.60;;
5026;SDS011;2532;52.480;13.354;2023-09-18T17:58:43;9.73;;;6.40;;
5026;SDS011;2532;52.480;13.354;2023-09-18T18:01:10;10.53;;;7.50;;
5026;SDS011;2532;52.480;13.354;2023-09-18T18:03:37;9.70;;;7.07;;
5026;SDS011;2532;52.480;13.354;2023-09-18T18:06:09;11.30;;;6.77;;
5026;SDS011;2532;52.480;13.354;2023-09-18T18:08:36;10.97;;;6.70;;
5026;SDS011;2532;52.480;13.354;2023-09-18T18:11:03;10.63;;;6.20;;
5026;SDS011;2532;52.480;13.354;2023-09-18T18:13:30;10.30;;;6.37;;
5026;SDS011;2532;52.480;13.354;2023-09-18T18:15:57;16.97;;;7.30;;
5026;SDS011;2532;52.480;13.354;2023-09-18T18:18:24;9.00;;;6.40;;
5026;SDS011;2532;52.480;13.354;2023-09-18T18:20:51;10.43;;;5.80;;
5026;SDS011;2532;52.480;13.354;2023-09-18T18:23:19;10.10;;;6.00;;
5026;SDS011;2532;52.480;13.354;2023-09-18T18:25:49;8.97;;;6.60;;
5026;SDS011;2532;52.480;13.354;2023-09-18T18:28:17;11.63;;;6.67;;
5026;SDS011;2532;52.480;13.354;2023-09-18T18:30:44;10.87;;;6.00;;
5026;SDS011;2532;52.480;13.354;2023-09-18T18:33:13;12.17;;;7.00;;
5026;SDS011;2532;52.480;13.354;2023-09-18T18:35:40;11.37;;;6.50;;
5026;SDS011;2532;52.480;13.354;2023-09-18T18:38:07;9.43;;;5.90;;
5026;SDS011;2532;52.480;13.354;2023-09-18T18:40:36;11.83;;;6.53;;
5026;SDS011;2532;52.480;13.354;2023-09-18T18:43:08;9.80;;;6.67;;
5026;SDS011;2532;52.480;13.354;2023-09-18T18:45:40;11.50;;;6.23;;
5026;SDS011;2532;52.480;13.354;2023-09-18T18:48:07;8.73;;;5.13;;
5026;SDS011;2532;52.480;13.354;2023-09-18T18:50:34;8.87;;;5.60;;
5026;SDS011;2532;52.480;13.354;2023-09-18T18:53:03;10.93;;;7.40;;
5026;SDS011;2532;52.480;13.354;2023-09-18T18:55:30;10.67;;;6.00;;
5026;SDS011;2532;52.480;13.354;2023-09-18T18:57:59;6.40;;;5.27;;
5026;SDS011;2532;52.480;13.354;2023-09-18T19:00:28;11.40;;;6.60;;
5026;SDS011;2532;52.480;13.354;2023-09-18T19:02:55;9.07;;;5.67;;
5026;SDS011;2532;52.480;13.354;2023-09-18T19:05:22;9.47;;;5.60;;